createdAt,value
2018-06-18T00:00:03.195Z,5.10
2018-06-18T00:01:10.365Z,4.93
2018-06-18T00:02:17.838Z,5.28
2018-06-18T00:03:25.724Z,7.65
2018-06-18T00:04:33.135Z,5.95
2018-06-18T00:05:41.440Z,7.70
2018-06-18T00:06:49.121Z,4.55
2018-06-18T00:07:56.142Z,5.35
2018-06-18T00:09:03.359Z,5.00
2018-06-18T00:10:11.292Z,4.82
2018-06-18T00:11:19.835Z,5.20
2018-06-18T00:12:27.350Z,5.00
2018-06-18T00:13:34.585Z,5.85
2018-06-18T00:14:44.746Z,4.78
2018-06-18T00:15:52.929Z,6.10
2018-06-18T00:17:01.231Z,5.40
2018-06-18T00:18:11.095Z,5.22
2018-06-18T00:19:18.739Z,6.05
2018-06-18T00:20:26.239Z,5.05
2018-06-18T00:21:37.036Z,5.20
2018-06-18T00:22:45.395Z,6.07
2018-06-18T00:23:55.696Z,5.00
2018-06-18T00:25:04.114Z,4.95
2018-06-18T00:26:12.167Z,5.15
2018-06-18T00:27:19.675Z,5.00
2018-06-18T00:28:35.956Z,5.12
2018-06-18T00:29:44.935Z,5.12
2018-06-18T00:30:53.222Z,5.32
2018-06-18T00:32:00.756Z,5.70
2018-06-18T00:33:09.732Z,5.28
2018-06-18T00:34:17.616Z,4.90
2018-06-18T00:35:25.271Z,5.00
2018-06-18T00:36:33.654Z,5.90
2018-06-18T00:37:40.814Z,4.85
2018-06-18T00:38:48.120Z,9.05
2018-06-18T00:39:55.456Z,5.82
2018-06-18T00:41:02.874Z,5.45
2018-06-18T00:42:11.876Z,5.70
2018-06-18T00:43:19.708Z,4.90
2018-06-18T00:44:27.712Z,5.00
2018-06-18T00:45:35.170Z,5.07
2018-06-18T00:46:42.363Z,5.20
2018-06-18T00:47:49.729Z,5.50
2018-06-18T00:48:57.052Z,5.50
2018-06-18T00:50:04.185Z,5.45
2018-06-18T00:51:11.652Z,5.35
2018-06-18T00:52:19.678Z,4.82
2018-06-18T00:53:26.927Z,5.20
2018-06-18T00:54:35.694Z,10.13
2018-06-18T00:55:55.226Z,5.30
2018-06-18T00:57:02.443Z,5.28
2018-06-18T00:58:09.803Z,6.15
2018-06-18T00:59:17.001Z,4.90
2018-06-18T01:00:24.228Z,5.45
2018-06-18T01:01:31.046Z,6.03
2018-06-18T01:02:38.602Z,5.90
2018-06-18T01:03:45.758Z,5.62
2018-06-18T01:04:59.375Z,6.28
2018-06-18T01:06:07.739Z,4.70
2018-06-18T01:07:15.160Z,5.82
2018-06-18T01:08:22.970Z,5.50
2018-06-18T01:09:30.048Z,5.00
2018-06-18T01:10:37.688Z,5.05
2018-06-18T01:11:44.500Z,5.62
2018-06-18T01:12:51.656Z,6.18
2018-06-18T01:13:58.655Z,5.90
2018-06-18T01:15:05.847Z,6.40
2018-06-18T01:16:13.495Z,6.53
2018-06-18T01:17:20.820Z,6.47
2018-06-18T01:18:28.323Z,6.22
2018-06-18T01:19:35.534Z,6.25
2018-06-18T01:20:43.117Z,8.10
2018-06-18T01:21:51.430Z,9.27
2018-06-18T01:22:58.793Z,5.70
2018-06-18T01:24:06.047Z,5.62
2018-06-18T01:25:13.409Z,6.05
2018-06-18T01:26:21.644Z,5.65
2018-06-18T01:27:29.089Z,5.47
2018-06-18T01:28:37.326Z,4.95
2018-06-18T01:29:44.389Z,5.95
2018-06-18T01:30:53.001Z,6.37
2018-06-18T01:32:01.335Z,5.45
2018-06-18T01:33:08.962Z,5.43
2018-06-18T01:34:16.336Z,5.93
2018-06-18T01:35:23.575Z,4.82
2018-06-18T01:36:30.700Z,5.47
2018-06-18T01:37:38.873Z,5.07
2018-06-18T01:38:47.121Z,5.18
2018-06-18T01:39:54.775Z,5.82
2018-06-18T01:41:01.933Z,5.03
2018-06-18T01:42:09.258Z,4.82
2018-06-18T01:43:17.478Z,6.00
2018-06-18T01:44:24.893Z,4.93
2018-06-18T01:45:32.899Z,6.20
2018-06-18T01:46:40.951Z,5.40
2018-06-18T01:47:48.025Z,6.90
2018-06-18T01:48:55.434Z,8.60
2018-06-18T01:50:03.881Z,5.22
2018-06-18T01:51:11.038Z,7.45
2018-06-18T01:52:18.199Z,5.57
2018-06-18T01:53:26.372Z,8.80
2018-06-18T01:54:35.241Z,5.30
2018-06-18T01:55:42.665Z,6.20
2018-06-18T01:56:50.925Z,5.90
2018-06-18T01:57:59.446Z,5.68
2018-06-18T01:59:08.034Z,5.05
2018-06-18T02:00:15.591Z,6.03
2018-06-18T02:01:22.862Z,7.78
2018-06-18T02:02:31.493Z,5.07
2018-06-18T02:03:39.731Z,5.05
2018-06-18T02:04:47.698Z,6.82
2018-06-18T02:05:55.130Z,5.93
2018-06-18T02:07:03.355Z,6.12
2018-06-18T02:08:10.981Z,5.10
2018-06-18T02:09:18.362Z,5.80
2018-06-18T02:10:25.979Z,6.10
2018-06-18T02:11:33.306Z,5.90
2018-06-18T02:12:41.338Z,5.78
2018-06-18T02:13:48.992Z,6.25
2018-06-18T02:14:56.903Z,6.12
2018-06-18T02:16:04.733Z,5.53
2018-06-18T02:17:12.465Z,7.40
2018-06-18T02:18:19.666Z,6.07
2018-06-18T02:19:29.667Z,5.93
2018-06-18T02:20:36.804Z,5.72
2018-06-18T02:21:43.880Z,5.40
2018-06-18T02:22:52.756Z,7.05
2018-06-18T02:24:00.455Z,5.78
2018-06-18T02:25:07.597Z,5.43
2018-06-18T02:26:14.438Z,5.95
2018-06-18T02:27:22.181Z,5.90
2018-06-18T02:30:07.656Z,5.95
2018-06-18T02:33:02.322Z,6.25
2018-06-18T02:34:39.409Z,5.57
2018-06-18T02:36:14.888Z,5.70
2018-06-18T02:37:52.862Z,5.50
2018-06-18T02:39:11.913Z,5.60
2018-06-18T02:40:23.910Z,5.85
2018-06-18T02:41:30.119Z,6.87
2018-06-18T02:42:36.320Z,5.43
2018-06-18T02:43:43.432Z,5.70
2018-06-18T02:44:50.780Z,5.80
2018-06-18T02:45:56.994Z,6.12
2018-06-18T02:47:03.219Z,6.60
2018-06-18T02:48:09.215Z,6.20
2018-06-18T02:49:15.269Z,5.75
2018-06-18T02:50:21.485Z,7.70
2018-06-18T02:51:27.717Z,5.90
2018-06-18T02:52:33.925Z,5.50
2018-06-18T02:53:40.166Z,6.32
2018-06-18T02:54:46.385Z,5.97
2018-06-18T02:55:52.607Z,5.72
2018-06-18T02:56:58.856Z,7.00
2018-06-18T02:58:04.744Z,6.15
2018-06-18T02:59:11.572Z,6.47
2018-06-18T03:00:18.557Z,6.90
2018-06-18T03:01:24.813Z,6.50
2018-06-18T03:02:30.764Z,6.22
2018-06-18T03:03:36.984Z,8.50
2018-06-18T03:04:43.187Z,6.87
2018-06-18T03:05:49.409Z,6.90
2018-06-18T03:06:55.637Z,6.43
2018-06-18T03:08:01.599Z,6.90
2018-06-18T03:09:07.829Z,5.80
2018-06-18T03:10:14.928Z,5.68
2018-06-18T03:11:21.161Z,6.97
2018-06-18T03:12:27.345Z,6.10
2018-06-18T03:13:33.572Z,5.90
2018-06-18T03:14:39.840Z,5.95
2018-06-18T03:15:46.033Z,6.75
2018-06-18T03:16:52.291Z,6.57
2018-06-18T03:17:58.488Z,7.50
2018-06-18T03:19:04.523Z,7.82
2018-06-18T03:20:15.959Z,6.10
2018-06-18T03:23:12.757Z,6.20
2018-06-18T03:24:32.193Z,6.20
2018-06-18T03:27:33.203Z,5.72
2018-06-18T03:29:09.052Z,6.10
2018-06-18T03:30:31.549Z,6.70
2018-06-18T03:31:39.014Z,6.30
2018-06-18T03:32:46.978Z,7.10
2018-06-18T03:33:54.122Z,6.65
2018-06-18T03:35:01.958Z,5.95
2018-06-18T03:36:09.221Z,6.62
2018-06-18T03:37:16.649Z,6.60
2018-06-18T03:38:23.805Z,6.75
2018-06-18T03:39:31.511Z,6.60
2018-06-18T03:40:39.071Z,7.00
2018-06-18T03:41:46.295Z,7.10
2018-06-18T03:42:54.513Z,7.00
2018-06-18T03:44:01.945Z,6.45
2018-06-18T03:45:09.842Z,6.20
2018-06-18T03:46:17.225Z,7.12
2018-06-18T03:47:24.253Z,5.72
2018-06-18T03:48:32.435Z,6.53
2018-06-18T03:49:39.977Z,6.30
2018-06-18T03:50:47.218Z,6.30
2018-06-18T03:51:54.503Z,6.90
2018-06-18T03:53:01.323Z,6.47
2018-06-18T03:54:08.268Z,7.00
2018-06-18T03:55:15.106Z,8.20
2018-06-18T03:56:23.370Z,6.25
2018-06-18T03:57:30.894Z,6.00
2018-06-18T03:58:39.279Z,6.32
2018-06-18T03:59:47.207Z,6.65
2018-06-18T04:00:54.232Z,6.65
2018-06-18T04:03:51.629Z,6.03
2018-06-18T04:05:17.432Z,6.47
2018-06-18T04:07:58.851Z,6.40
2018-06-18T04:09:06.232Z,7.03
2018-06-18T04:11:52.405Z,5.53
2018-06-18T04:12:59.995Z,6.10
2018-06-18T04:14:06.950Z,5.40
2018-06-18T04:15:13.835Z,6.80
2018-06-18T04:16:20.770Z,6.15
2018-06-18T04:17:27.325Z,6.50
2018-06-18T04:18:34.253Z,5.50
2018-06-18T04:19:41.687Z,7.28
2018-06-18T04:20:49.459Z,6.00
2018-06-18T04:21:56.669Z,10.30
2018-06-18T04:23:03.881Z,5.68
2018-06-18T04:24:10.075Z,6.65
2018-06-18T04:25:16.321Z,6.72
2018-06-18T04:26:22.544Z,6.12
2018-06-18T04:27:28.744Z,6.37
2018-06-18T04:28:35.912Z,6.35
2018-06-18T04:29:42.124Z,7.45
2018-06-18T04:30:48.311Z,6.82
2018-06-18T04:31:54.549Z,7.20
2018-06-18T04:33:00.777Z,7.68
2018-06-18T04:34:06.339Z,6.07
2018-06-18T04:35:12.595Z,6.25
2018-06-18T04:36:18.815Z,6.85
2018-06-18T04:37:24.884Z,6.93
2018-06-18T04:38:31.479Z,5.70
2018-06-18T04:39:37.935Z,6.25
2018-06-18T04:40:44.192Z,6.87
2018-06-18T04:41:53.958Z,6.30
2018-06-18T04:44:50.659Z,6.50
2018-06-18T04:46:10.685Z,6.62
2018-06-18T04:49:14.835Z,6.60
2018-06-18T04:50:52.005Z,6.80
2018-06-18T04:52:13.451Z,6.68
2018-06-18T04:53:20.962Z,6.68
2018-06-18T04:54:28.761Z,6.72
2018-06-18T04:55:36.315Z,7.03
2018-06-18T04:56:45.638Z,6.00
2018-06-18T04:57:54.331Z,7.25
2018-06-18T04:59:02.572Z,6.22
2018-06-18T05:00:08.907Z,6.43
2018-06-18T05:01:16.828Z,7.30
2018-06-18T05:02:25.324Z,7.72
2018-06-18T05:03:33.361Z,7.20
2018-06-18T05:04:42.383Z,6.90
2018-06-18T05:05:50.857Z,6.82
2018-06-18T05:06:58.054Z,6.93
2018-06-18T05:08:08.826Z,6.70
2018-06-18T05:09:16.437Z,6.03
2018-06-18T05:10:25.305Z,9.10
2018-06-18T05:11:34.899Z,7.05
2018-06-18T05:12:43.070Z,5.95
2018-06-18T05:13:51.510Z,6.03
2018-06-18T05:14:58.530Z,6.03
2018-06-18T05:16:05.883Z,6.28
2018-06-18T05:17:13.823Z,6.15
2018-06-18T05:18:21.458Z,9.55
2018-06-18T05:19:30.288Z,5.65
2018-06-18T05:20:40.009Z,5.37
2018-06-18T05:21:47.242Z,10.15
2018-06-18T05:22:54.658Z,5.57
2018-06-18T05:24:01.931Z,5.90
2018-06-18T05:25:10.103Z,6.00
2018-06-18T05:26:17.339Z,6.07
2018-06-18T05:27:25.852Z,6.70
2018-06-18T05:28:34.043Z,10.13
2018-06-18T05:29:41.183Z,6.07
2018-06-18T05:30:49.249Z,11.30
2018-06-18T05:31:57.739Z,6.78
2018-06-18T05:33:05.317Z,6.45
2018-06-18T05:34:13.460Z,7.12
2018-06-18T05:35:22.832Z,7.15
2018-06-18T05:36:30.830Z,7.53
2018-06-18T05:37:38.062Z,6.12
2018-06-18T05:38:45.616Z,6.15
2018-06-18T05:39:54.086Z,7.20
2018-06-18T05:41:02.356Z,5.57
2018-06-18T05:42:09.740Z,6.47
2018-06-18T05:43:17.076Z,6.50
2018-06-18T05:44:24.506Z,6.15
2018-06-18T05:45:33.119Z,6.43
2018-06-18T05:46:40.893Z,9.05
2018-06-18T05:47:49.125Z,6.60
2018-06-18T05:48:56.965Z,6.28
2018-06-18T05:50:04.289Z,6.70
2018-06-18T05:51:12.231Z,5.87
2018-06-18T05:52:20.592Z,5.82
2018-06-18T05:53:28.967Z,6.32
2018-06-18T05:54:36.914Z,6.10
2018-06-18T05:55:45.265Z,6.32
2018-06-18T05:56:52.809Z,5.87
2018-06-18T05:58:00.414Z,5.85
2018-06-18T05:59:07.642Z,6.28
2018-06-18T06:00:14.355Z,7.18
2018-06-18T06:01:21.511Z,8.20
2018-06-18T06:02:28.008Z,6.87
2018-06-18T06:03:34.972Z,6.18
2018-06-18T06:04:41.590Z,6.10
2018-06-18T06:05:48.116Z,6.22
2018-06-18T06:06:54.638Z,6.62
2018-06-18T06:08:00.961Z,6.57
2018-06-18T06:09:07.117Z,7.20
2018-06-18T06:10:13.535Z,7.22
2018-06-18T06:11:20.915Z,7.60
2018-06-18T06:12:27.834Z,7.00
2018-06-18T06:13:34.390Z,5.80
2018-06-18T06:14:41.054Z,7.30
2018-06-18T06:15:48.651Z,6.60
2018-06-18T06:16:56.986Z,5.70
2018-06-18T06:18:04.093Z,6.62
2018-06-18T06:19:10.418Z,5.93
2018-06-18T06:20:17.112Z,9.07
2018-06-18T06:21:23.572Z,10.80
2018-06-18T06:22:30.285Z,6.60
2018-06-18T06:23:37.096Z,5.93
2018-06-18T06:24:44.194Z,6.57
2018-06-18T06:25:50.988Z,6.05
2018-06-18T06:26:57.355Z,7.50
2018-06-18T06:28:04.210Z,6.50
2018-06-18T06:29:11.931Z,5.50
2018-06-18T06:30:19.385Z,7.60
2018-06-18T06:31:27.971Z,6.93
2018-06-18T06:32:36.151Z,6.47
2018-06-18T06:33:43.519Z,7.70
2018-06-18T06:34:50.811Z,7.37
2018-06-18T06:35:58.488Z,7.30
2018-06-18T06:37:05.958Z,7.05
2018-06-18T06:38:13.671Z,6.35
2018-06-18T06:39:20.877Z,6.57
2018-06-18T06:40:28.222Z,7.68
2018-06-18T06:41:36.399Z,6.20
2018-06-18T06:42:44.842Z,7.07
2018-06-18T06:43:52.880Z,6.93
2018-06-18T06:45:00.209Z,6.85
2018-06-18T06:46:07.948Z,7.12
2018-06-18T06:47:15.152Z,6.97
2018-06-18T06:48:23.106Z,6.60
2018-06-18T06:49:30.079Z,7.90
2018-06-18T06:50:37.142Z,7.32
2018-06-18T06:51:44.380Z,7.30
2018-06-18T06:52:51.783Z,7.07
2018-06-18T06:53:58.630Z,6.80
2018-06-18T06:55:05.236Z,7.43
2018-06-18T06:56:12.969Z,6.40
2018-06-18T06:57:20.701Z,7.12
2018-06-18T06:58:27.893Z,8.73
2018-06-18T06:59:37.345Z,7.85
2018-06-18T07:00:45.809Z,8.65
2018-06-18T07:01:54.788Z,7.78
2018-06-18T07:03:03.385Z,6.65
2018-06-18T07:04:10.659Z,6.60
2018-06-18T07:05:18.864Z,6.45
2018-06-18T07:06:26.102Z,6.75
2018-06-18T07:07:33.306Z,8.98
2018-06-18T07:08:42.658Z,7.60
2018-06-18T07:09:51.340Z,6.30
2018-06-18T07:10:58.391Z,7.47
2018-06-18T07:12:05.815Z,7.15
2018-06-18T07:13:13.131Z,6.70
2018-06-18T07:14:20.658Z,7.03
2018-06-18T07:15:27.774Z,6.68
2018-06-18T07:16:35.981Z,7.60
2018-06-18T07:17:43.187Z,6.75
2018-06-18T07:18:50.779Z,5.82
2018-06-18T07:19:59.048Z,6.28
2018-06-18T07:21:07.209Z,6.35
2018-06-18T07:22:14.026Z,6.18
2018-06-18T07:23:20.656Z,6.70
2018-06-18T07:24:27.265Z,6.07
2018-06-18T07:25:33.792Z,5.50
2018-06-18T07:26:40.700Z,6.12
2018-06-18T07:27:47.972Z,7.47
2018-06-18T07:28:55.280Z,5.60
2018-06-18T07:30:01.840Z,6.82
2018-06-18T07:31:08.498Z,6.35
2018-06-18T07:32:15.168Z,6.37
2018-06-18T07:33:21.458Z,5.90
2018-06-18T07:34:28.267Z,6.18
2018-06-18T07:35:36.935Z,5.97
2018-06-18T07:36:44.992Z,6.03
2018-06-18T07:37:52.486Z,6.62
2018-06-18T07:39:01.107Z,7.35
2018-06-18T07:40:08.483Z,6.80
2018-06-18T07:41:16.034Z,6.72
2018-06-18T07:42:24.699Z,6.28
2018-06-18T07:43:32.097Z,7.40
2018-06-18T07:44:39.392Z,6.32
2018-06-18T07:45:46.731Z,6.32
2018-06-18T07:46:53.998Z,7.00
2018-06-18T07:48:03.156Z,8.18
2018-06-18T07:49:11.992Z,6.53
2018-06-18T07:50:19.605Z,7.37
2018-06-18T07:51:27.907Z,8.88
2018-06-18T07:52:34.779Z,7.55
2018-06-18T07:53:40.948Z,6.60
2018-06-18T07:54:47.124Z,7.10
2018-06-18T07:55:53.340Z,5.97
2018-06-18T07:56:59.576Z,7.20
2018-06-18T07:58:05.752Z,8.38
2018-06-18T07:59:11.961Z,6.30
2018-06-18T08:00:18.188Z,6.70
2018-06-18T08:01:24.413Z,6.07
2018-06-18T08:02:30.624Z,6.47
2018-06-18T08:03:36.949Z,6.72
2018-06-18T08:04:43.048Z,6.95
2018-06-18T08:05:50.003Z,6.87
2018-06-18T08:06:56.422Z,8.13
2018-06-18T08:08:02.641Z,10.45
2018-06-18T08:09:08.864Z,7.75
2018-06-18T08:10:15.138Z,8.32
2018-06-18T08:11:20.677Z,9.25
2018-06-18T08:12:26.923Z,7.07
2018-06-18T08:13:33.553Z,6.82
2018-06-18T08:14:39.826Z,8.40
2018-06-18T08:15:46.055Z,6.90
2018-06-18T08:16:52.259Z,7.47
2018-06-18T08:17:58.532Z,7.40
2018-06-18T08:19:04.428Z,6.93
2018-06-18T08:20:10.397Z,7.78
2018-06-18T08:21:16.775Z,6.97
2018-06-18T08:22:23.876Z,6.57
2018-06-18T08:23:30.084Z,5.97
2018-06-18T08:24:36.335Z,6.30
2018-06-18T08:25:42.532Z,7.30
2018-06-18T08:26:48.776Z,8.25
2018-06-18T08:27:55.046Z,6.93
2018-06-18T08:29:01.229Z,7.05
2018-06-18T08:30:07.437Z,8.00
2018-06-18T08:31:13.672Z,7.03
2018-06-18T08:32:19.935Z,7.05
2018-06-18T08:33:26.393Z,6.35
2018-06-18T08:34:32.600Z,7.03
2018-06-18T08:35:38.775Z,6.10
2018-06-18T08:36:45.038Z,6.62
2018-06-18T08:37:51.281Z,6.80
2018-06-18T08:38:57.192Z,7.60
2018-06-18T08:40:03.119Z,6.60
2018-06-18T08:41:09.097Z,6.12
2018-06-18T08:42:15.556Z,6.70
2018-06-18T08:43:21.800Z,7.57
2018-06-18T08:44:28.013Z,5.87
2018-06-18T08:45:34.234Z,5.90
2018-06-18T08:46:40.180Z,5.18
2018-06-18T08:47:46.954Z,7.28
2018-06-18T08:48:54.398Z,8.15
2018-06-18T08:50:02.399Z,6.65
2018-06-18T08:53:01.282Z,7.65
2018-06-18T08:54:38.651Z,5.70
2018-06-18T08:56:17.347Z,5.75
2018-06-18T08:57:53.188Z,4.65
2018-06-18T08:59:28.491Z,4.43
2018-06-18T09:00:55.854Z,4.45
2018-06-18T09:02:03.065Z,4.50
2018-06-18T09:03:11.399Z,5.15
2018-06-18T09:04:18.592Z,4.68
2018-06-18T09:05:25.954Z,4.22
2018-06-18T09:06:34.155Z,4.70
2018-06-18T09:07:42.146Z,5.50
2018-06-18T09:08:52.027Z,7.95
2018-06-18T09:10:01.154Z,4.55
2018-06-18T09:11:09.588Z,4.37
2018-06-18T09:12:17.129Z,6.00
2018-06-18T09:13:24.449Z,5.20
2018-06-18T09:14:31.773Z,5.20
2018-06-18T09:15:39.370Z,5.12
2018-06-18T09:16:46.845Z,6.12
2018-06-18T09:17:54.453Z,9.98
2018-06-18T09:19:01.143Z,4.35
2018-06-18T09:20:07.165Z,5.60
2018-06-18T09:21:13.387Z,6.43
2018-06-18T09:22:19.645Z,4.55
2018-06-18T09:23:26.368Z,6.85
2018-06-18T09:24:33.647Z,8.93
2018-06-18T09:25:39.915Z,4.50
2018-06-18T09:26:45.912Z,5.22
2018-06-18T09:27:52.400Z,5.00
2018-06-18T09:28:59.280Z,6.28
2018-06-18T09:30:04.665Z,5.10
2018-06-18T09:31:11.566Z,4.50
2018-06-18T09:32:17.912Z,4.97
2018-06-18T09:33:24.424Z,4.07
2018-06-18T09:34:31.020Z,5.22
2018-06-18T09:35:37.563Z,3.80
2018-06-18T09:36:43.831Z,4.35
2018-06-18T09:37:50.206Z,4.80
2018-06-18T09:38:56.492Z,4.55
2018-06-18T09:40:02.441Z,3.22
2018-06-18T09:41:08.743Z,3.50
2018-06-18T09:42:14.928Z,3.85
2018-06-18T09:43:21.164Z,3.83
2018-06-18T09:44:27.957Z,3.60
2018-06-18T09:45:34.577Z,3.58
2018-06-18T09:46:40.839Z,3.20
2018-06-18T09:47:47.038Z,3.78
2018-06-18T09:48:53.026Z,5.05
2018-06-18T09:51:47.144Z,4.05
2018-06-18T09:53:21.228Z,4.43
2018-06-18T09:54:56.718Z,4.15
2018-06-18T09:56:21.764Z,4.03
2018-06-18T09:59:14.980Z,3.92
2018-06-18T10:00:45.272Z,3.85
2018-06-18T10:01:51.221Z,4.07
2018-06-18T10:02:57.422Z,4.43
2018-06-18T10:04:03.689Z,3.78
2018-06-18T10:05:10.513Z,4.85
2018-06-18T10:06:16.751Z,4.37
2018-06-18T10:07:22.973Z,3.80
2018-06-18T10:08:28.999Z,3.67
2018-06-18T10:09:35.441Z,4.32
2018-06-18T10:10:41.684Z,4.18
2018-06-18T10:11:47.900Z,3.12
2018-06-18T10:12:54.133Z,3.60
2018-06-18T10:14:00.396Z,3.55
2018-06-18T10:15:06.344Z,3.33
2018-06-18T10:16:12.240Z,3.60
2018-06-18T10:17:18.435Z,3.33
2018-06-18T10:18:24.638Z,3.92
2018-06-18T10:19:30.865Z,4.87
2018-06-18T10:20:37.105Z,3.45
2018-06-18T10:21:43.352Z,4.90
2018-06-18T10:22:49.581Z,3.67
2018-06-18T10:23:55.856Z,4.18
2018-06-18T10:25:02.067Z,3.60
2018-06-18T10:26:08.639Z,3.95
2018-06-18T10:27:14.845Z,4.22
2018-06-18T10:28:21.029Z,4.70
2018-06-18T10:29:27.261Z,3.40
2018-06-18T10:30:33.482Z,5.07
2018-06-18T10:31:39.336Z,5.03
2018-06-18T10:32:45.328Z,3.55
2018-06-18T10:35:30.097Z,4.85
2018-06-18T10:38:25.652Z,2.60
2018-06-18T10:40:03.142Z,3.50
2018-06-18T10:41:38.160Z,3.67
2018-06-18T10:43:15.345Z,4.10
2018-06-18T10:44:21.580Z,3.05
2018-06-18T10:45:27.786Z,3.75
2018-06-18T10:46:34.047Z,3.65
2018-06-18T10:47:40.257Z,3.03
2018-06-18T10:48:46.463Z,4.10
2018-06-18T10:49:52.695Z,3.72
2018-06-18T10:50:58.985Z,5.20
2018-06-18T10:52:05.461Z,2.92
2018-06-18T10:53:12.421Z,3.05
2018-06-18T10:54:18.712Z,2.72
2018-06-18T10:55:24.981Z,2.60
2018-06-18T10:56:31.230Z,3.65
2018-06-18T10:57:37.144Z,2.92
2018-06-18T10:58:43.382Z,3.30
2018-06-18T10:59:49.639Z,2.55
2018-06-18T11:00:55.900Z,2.62
2018-06-18T11:02:02.109Z,3.70
2018-06-18T11:03:08.338Z,3.30
2018-06-18T11:04:14.324Z,2.90
2018-06-18T11:05:20.317Z,2.90
2018-06-18T11:06:25.965Z,5.03
2018-06-18T11:07:32.709Z,3.35
2018-06-18T11:08:39.639Z,3.67
2018-06-18T11:09:45.876Z,2.47
2018-06-18T11:10:52.157Z,5.22
2018-06-18T11:11:58.382Z,3.83
2018-06-18T11:13:04.688Z,2.65
2018-06-18T11:14:10.946Z,2.55
2018-06-18T11:15:17.200Z,2.42
2018-06-18T11:16:23.497Z,4.18
2018-06-18T11:17:29.463Z,2.72
2018-06-18T11:20:13.136Z,2.42
2018-06-18T11:21:24.736Z,2.58
2018-06-18T11:22:30.773Z,3.10
2018-06-18T11:25:24.763Z,2.70
2018-06-18T11:26:49.428Z,2.40
2018-06-18T11:27:55.229Z,3.95
2018-06-18T11:29:01.458Z,2.12
2018-06-18T11:30:07.387Z,2.92
2018-06-18T11:31:13.795Z,2.20
2018-06-18T11:32:20.319Z,2.45
2018-06-18T11:33:26.670Z,2.20
2018-06-18T11:34:33.220Z,3.70
2018-06-18T11:35:39.477Z,2.17
2018-06-18T11:36:45.973Z,4.43
2018-06-18T11:37:52.233Z,2.85
2018-06-18T11:38:58.463Z,2.58
2018-06-18T11:40:04.873Z,2.20
2018-06-18T11:41:11.322Z,2.20
2018-06-18T11:42:18.169Z,2.33
2018-06-18T11:43:24.705Z,2.47
2018-06-18T11:44:31.117Z,2.30
2018-06-18T11:45:37.418Z,2.10
2018-06-18T11:46:43.713Z,2.15
2018-06-18T11:47:49.269Z,2.28
2018-06-18T11:48:55.246Z,1.83
2018-06-18T11:50:01.538Z,2.03
2018-06-18T11:51:07.775Z,1.75
2018-06-18T11:52:14.015Z,3.37
2018-06-18T11:53:20.262Z,2.28
2018-06-18T11:54:26.986Z,2.50
2018-06-18T11:55:34.384Z,5.62
2018-06-18T11:56:40.634Z,2.00
2018-06-18T11:57:46.905Z,4.25
2018-06-18T11:58:52.931Z,2.00
2018-06-18T12:01:48.970Z,1.80
2018-06-18T12:03:23.053Z,3.12
2018-06-18T12:04:59.585Z,2.12
2018-06-18T12:06:24.891Z,3.40
2018-06-18T12:09:24.603Z,2.00
2018-06-18T12:10:44.352Z,2.83
2018-06-18T12:11:49.889Z,2.43
2018-06-18T12:12:56.198Z,1.70
2018-06-18T12:14:02.240Z,1.47
2018-06-18T12:15:08.761Z,1.60
2018-06-18T12:16:15.638Z,3.47
2018-06-18T12:17:21.872Z,1.90
2018-06-18T12:18:28.084Z,2.10
2018-06-18T12:19:34.090Z,2.03
2018-06-18T12:20:40.420Z,1.67
2018-06-18T12:21:46.705Z,2.23
2018-06-18T12:22:53.765Z,2.07
2018-06-18T12:23:59.709Z,1.57
2018-06-18T12:25:06.003Z,2.85
2018-06-18T12:26:13.209Z,1.70
2018-06-18T12:27:19.968Z,1.87
2018-06-18T12:28:26.576Z,1.33
2018-06-18T12:29:32.915Z,1.95
2018-06-18T12:30:40.585Z,2.08
2018-06-18T12:31:47.738Z,1.50
2018-06-18T12:32:54.741Z,1.85
2018-06-18T12:34:00.999Z,1.60
2018-06-18T12:35:07.424Z,2.23
2018-06-18T12:36:13.812Z,1.60
2018-06-18T12:37:19.912Z,1.43
2018-06-18T12:38:25.933Z,2.10
2018-06-18T12:39:32.907Z,1.80
2018-06-18T12:40:39.708Z,1.93
2018-06-18T12:41:45.504Z,1.57
2018-06-18T12:42:51.968Z,2.50
2018-06-18T12:43:58.375Z,8.93
2018-06-18T12:45:03.817Z,2.33
2018-06-18T12:46:15.579Z,2.23
2018-06-18T12:49:11.860Z,1.67
2018-06-18T12:50:49.784Z,1.50
2018-06-18T12:52:28.573Z,1.40
2018-06-18T12:54:04.188Z,1.70
2018-06-18T12:55:41.087Z,2.40
2018-06-18T12:57:00.450Z,1.92
2018-06-18T12:58:07.279Z,1.87
2018-06-18T12:59:13.515Z,3.20
2018-06-18T13:00:19.659Z,1.60
2018-06-18T13:01:26.320Z,2.40
2018-06-18T13:02:32.746Z,2.17
2018-06-18T13:03:38.867Z,1.70
2018-06-18T13:04:45.768Z,1.87
2018-06-18T13:05:51.988Z,2.50
2018-06-18T13:06:57.895Z,2.00
2018-06-18T13:08:05.572Z,2.50
2018-06-18T13:09:11.580Z,1.80
2018-06-18T13:10:18.161Z,2.53
2018-06-18T13:11:24.360Z,2.23
2018-06-18T13:12:30.582Z,2.33
2018-06-18T13:13:36.835Z,2.33
2018-06-18T13:14:42.816Z,1.47
2018-06-18T13:15:51.063Z,2.40
2018-06-18T13:16:57.422Z,2.37
2018-06-18T13:18:03.608Z,2.10
2018-06-18T13:19:10.139Z,2.80
2018-06-18T13:20:16.963Z,2.05
2018-06-18T13:21:23.361Z,2.33
2018-06-18T13:22:30.476Z,2.23
2018-06-18T13:23:37.365Z,2.03
2018-06-18T13:24:45.280Z,1.87
2018-06-18T13:25:52.655Z,2.27
2018-06-18T13:26:59.561Z,2.30
2018-06-18T13:28:06.042Z,1.95
2018-06-18T13:29:13.130Z,2.25
2018-06-18T13:30:19.438Z,2.22
2018-06-18T13:31:27.938Z,2.20
2018-06-18T13:32:33.868Z,2.03
2018-06-18T13:33:40.074Z,3.17
2018-06-18T13:34:46.263Z,1.83
2018-06-18T13:35:53.199Z,1.93
2018-06-18T13:36:59.514Z,2.07
2018-06-18T13:39:56.350Z,2.33
2018-06-18T13:41:21.892Z,2.03
2018-06-18T13:44:16.556Z,2.30
2018-06-18T13:45:36.272Z,2.73
2018-06-18T13:46:42.370Z,2.50
2018-06-18T13:49:23.379Z,2.00
2018-06-18T13:50:29.868Z,2.20
2018-06-18T13:51:36.158Z,2.03
2018-06-18T13:52:42.346Z,1.90
2018-06-18T13:53:49.389Z,1.93
2018-06-18T13:54:56.110Z,3.27
2018-06-18T13:56:03.195Z,1.97
2018-06-18T13:57:10.277Z,2.10
2018-06-18T13:58:15.971Z,1.90
2018-06-18T13:59:22.316Z,1.80
2018-06-18T14:00:28.597Z,2.10
2018-06-18T14:01:37.510Z,3.00
2018-06-18T14:02:50.265Z,1.73
2018-06-18T14:03:57.975Z,2.60
2018-06-18T14:05:05.257Z,3.43
2018-06-18T14:06:12.290Z,1.97
2018-06-18T14:07:18.448Z,2.37
2018-06-18T14:08:24.852Z,2.23
2018-06-18T14:09:31.684Z,2.30
2018-06-18T14:10:40.061Z,3.63
2018-06-18T14:11:46.743Z,3.40
2018-06-18T14:12:53.281Z,1.67
2018-06-18T14:13:59.537Z,2.17
2018-06-18T14:15:05.978Z,2.33
2018-06-18T14:16:11.975Z,2.70
2018-06-18T14:17:17.987Z,1.83
2018-06-18T14:18:24.013Z,3.23
2018-06-18T14:19:29.776Z,1.70
2018-06-18T14:20:35.794Z,1.93
2018-06-18T14:21:41.755Z,2.03
2018-06-18T14:22:47.806Z,1.97
2018-06-18T14:23:54.090Z,1.67
2018-06-18T14:25:01.084Z,1.77
2018-06-18T14:26:09.796Z,1.67
2018-06-18T14:27:15.781Z,1.77
2018-06-18T14:28:21.763Z,1.50
2018-06-18T14:29:27.504Z,1.73
2018-06-18T14:32:06.681Z,2.22
2018-06-18T14:34:59.426Z,2.00
2018-06-18T14:36:33.339Z,2.55
2018-06-18T14:38:09.721Z,3.25
2018-06-18T14:39:44.896Z,2.12
2018-06-18T14:40:50.870Z,1.93
2018-06-18T14:41:56.828Z,1.70
2018-06-18T14:43:02.999Z,1.57
2018-06-18T14:44:08.998Z,3.43
2018-06-18T14:45:14.996Z,2.20
2018-06-18T14:46:21.212Z,1.70
2018-06-18T14:47:27.641Z,1.60
2018-06-18T14:48:33.742Z,1.73
2018-06-18T14:49:39.888Z,1.80
2018-06-18T14:50:46.138Z,2.00
2018-06-18T14:51:52.091Z,2.23
2018-06-18T14:52:58.103Z,1.50
2018-06-18T14:54:04.124Z,2.33
2018-06-18T14:55:10.298Z,1.40
2018-06-18T14:56:16.289Z,1.70
2018-06-18T14:57:23.209Z,2.10
2018-06-18T14:58:29.218Z,3.73
2018-06-18T14:59:35.815Z,1.47
2018-06-18T15:00:41.815Z,2.03
2018-06-18T15:01:48.109Z,1.87
2018-06-18T15:02:54.112Z,1.53
2018-06-18T15:04:00.152Z,1.70
2018-06-18T15:05:06.340Z,2.43
2018-06-18T15:06:12.348Z,1.57
2018-06-18T15:07:18.358Z,1.40
2018-06-18T15:08:24.651Z,3.13
2018-06-18T15:09:30.947Z,2.83
2018-06-18T15:10:37.092Z,1.55
2018-06-18T15:11:44.034Z,2.00
2018-06-18T15:12:50.266Z,1.70
2018-06-18T15:13:56.655Z,1.50
2018-06-18T15:15:02.483Z,1.83
2018-06-18T15:17:39.979Z,1.93
2018-06-18T15:18:45.960Z,2.00
2018-06-18T15:19:51.933Z,1.53
2018-06-18T15:20:57.953Z,2.00
2018-06-18T15:22:04.971Z,2.25
2018-06-18T15:23:12.200Z,1.70
2018-06-18T15:24:19.128Z,2.43
2018-06-18T15:25:25.124Z,1.40
2018-06-18T15:26:31.386Z,1.40
2018-06-18T15:27:37.385Z,2.17
2018-06-18T15:28:43.801Z,1.70
2018-06-18T15:29:50.114Z,1.95
2018-06-18T15:30:57.004Z,2.85
2018-06-18T15:32:03.290Z,1.92
2018-06-18T15:33:09.290Z,2.37
2018-06-18T15:34:15.439Z,1.50
2018-06-18T15:35:21.459Z,1.50
2018-06-18T15:36:27.768Z,1.70
2018-06-18T15:37:34.067Z,1.62
2018-06-18T15:38:40.911Z,2.30
2018-06-18T15:39:46.900Z,2.13
2018-06-18T15:40:52.892Z,1.90
2018-06-18T15:41:58.872Z,1.60
2018-06-18T15:43:05.516Z,1.90
2018-06-18T15:44:13.187Z,2.28
2018-06-18T15:45:20.337Z,1.92
2018-06-18T15:46:27.443Z,3.00
2018-06-18T15:47:33.733Z,1.65
2018-06-18T15:48:39.736Z,1.67
2018-06-18T15:49:45.787Z,3.90
2018-06-18T15:50:52.373Z,2.40